createdAt,value
2024-02-05T00:00:53.129Z,3.20
2024-02-05T00:03:20.194Z,3.17
2024-02-05T00:05:49.062Z,2.78
2024-02-05T00:08:15.829Z,2.90
2024-02-05T00:10:42.595Z,2.75
2024-02-05T00:13:11.593Z,3.45
2024-02-05T00:15:38.736Z,3.70
2024-02-05T00:18:05.582Z,2.80
2024-02-05T00:20:35.189Z,2.63
2024-02-05T00:23:01.907Z,3.65
2024-02-05T00:25:30.732Z,3.20
2024-02-05T00:27:59.669Z,3.58
2024-02-05T00:30:26.198Z,3.50
2024-02-05T00:32:55.055Z,3.22
2024-02-05T00:35:21.745Z,3.30
2024-02-05T00:37:53.556Z,3.08
2024-02-05T00:40:21.954Z,3.33
2024-02-05T00:42:48.560Z,3.05
2024-02-05T00:45:17.523Z,3.08
2024-02-05T00:47:44.282Z,3.70
2024-02-05T00:50:11.485Z,3.03
2024-02-05T00:52:55.756Z,2.50
2024-02-05T00:55:22.319Z,3.13
2024-02-05T00:57:51.274Z,3.30
2024-02-05T01:00:18.440Z,3.67
2024-02-05T01:02:45.004Z,3.50
2024-02-05T01:05:14.326Z,2.92
2024-02-05T01:07:41.213Z,3.75
2024-02-05T01:10:08.220Z,2.85
2024-02-05T01:12:34.808Z,3.25
2024-02-05T01:15:01.366Z,3.53
2024-02-05T01:17:30.393Z,3.50
2024-02-05T01:20:00.875Z,3.47
2024-02-05T01:22:29.192Z,2.92
2024-02-05T01:25:00.589Z,3.08
2024-02-05T01:27:27.117Z,3.70
2024-02-05T01:29:53.616Z,3.08
2024-02-05T01:32:20.144Z,3.17
2024-02-05T01:34:46.901Z,2.58
2024-02-05T01:37:13.796Z,2.90
2024-02-05T01:39:41.411Z,4.55
2024-02-05T01:42:08.062Z,3.45
2024-02-05T01:44:34.724Z,2.95
2024-02-05T01:47:04.408Z,2.85
2024-02-05T01:49:35.682Z,3.35
2024-02-05T01:52:05.229Z,3.92
2024-02-05T01:54:31.899Z,3.15
2024-02-05T01:57:03.251Z,3.38
2024-02-05T01:59:33.039Z,3.63
2024-02-05T02:02:00.213Z,3.30
2024-02-05T02:04:29.304Z,4.30
2024-02-05T02:07:00.718Z,3.75
2024-02-05T02:09:29.888Z,3.10
2024-02-05T02:11:58.980Z,3.28
2024-02-05T02:14:25.515Z,2.85
2024-02-05T02:16:53.380Z,3.25
2024-02-05T02:22:06.531Z,5.63
2024-02-05T02:24:37.956Z,3.45
2024-02-05T02:27:04.740Z,4.40
2024-02-05T02:29:31.241Z,4.57
2024-02-05T02:32:08.282Z,3.55
2024-02-05T02:34:43.462Z,3.20
2024-02-05T02:37:15.984Z,3.83
2024-02-05T02:40:02.773Z,3.90
2024-02-05T02:42:29.965Z,3.28
2024-02-05T02:44:58.378Z,3.58
2024-02-05T02:51:05.222Z,4.25
2024-02-05T02:53:31.849Z,3.88
2024-02-05T02:55:58.565Z,4.13
2024-02-05T02:58:27.566Z,4.10
2024-02-05T03:00:54.414Z,3.80
2024-02-05T03:03:23.284Z,3.65
2024-02-05T03:05:49.965Z,3.83
2024-02-05T03:08:16.661Z,3.42
2024-02-05T03:10:45.682Z,4.20
2024-02-05T03:13:18.738Z,3.55
2024-02-05T03:15:46.086Z,3.22
2024-02-05T03:18:12.740Z,3.50
2024-02-05T03:20:43.042Z,3.58
2024-02-05T03:23:12.386Z,3.70
2024-02-05T03:25:40.599Z,3.67
2024-02-05T03:28:10.775Z,2.90
2024-02-05T03:30:38.460Z,3.60
2024-02-05T03:35:35.390Z,3.25
2024-02-05T03:38:02.085Z,2.95
2024-02-05T03:40:31.213Z,3.40
2024-02-05T03:43:00.059Z,3.35
2024-02-05T03:45:26.727Z,3.13
2024-02-05T03:47:55.593Z,4.45
2024-02-05T03:50:22.247Z,3.88
2024-02-05T03:52:48.929Z,3.95
2024-02-05T03:55:16.653Z,4.45
2024-02-05T04:00:26.295Z,3.03
2024-02-05T04:02:59.202Z,3.38
2024-02-05T04:05:33.078Z,3.80
2024-02-05T04:08:02.398Z,3.80
2024-02-05T04:10:29.148Z,4.35
2024-02-05T04:13:03.006Z,3.58
2024-02-05T04:15:29.712Z,3.15
2024-02-05T04:17:59.893Z,4.07
2024-02-05T04:20:26.683Z,3.47
2024-02-05T04:22:53.387Z,2.78
2024-02-05T04:25:20.096Z,3.40
2024-02-05T04:27:49.577Z,3.70
2024-02-05T04:30:17.609Z,3.70
2024-02-05T04:32:46.771Z,3.53
2024-02-05T04:35:13.436Z,3.85
2024-02-05T04:37:40.140Z,3.40
2024-02-05T04:40:10.469Z,3.95
2024-02-05T04:42:37.130Z,3.78
2024-02-05T04:45:06.561Z,3.90
2024-02-05T04:47:35.355Z,3.22
2024-02-05T04:50:02.503Z,3.55
2024-02-05T04:52:29.757Z,3.97
2024-02-05T04:54:56.362Z,3.75
2024-02-05T04:57:23.011Z,3.90
2024-02-05T04:59:52.308Z,3.60
2024-02-05T05:02:20.171Z,3.78
2024-02-05T05:07:13.573Z,2.88
2024-02-05T05:09:41.086Z,4.60
2024-02-05T05:12:07.883Z,3.20
2024-02-05T05:14:36.650Z,3.05
2024-02-05T05:17:03.208Z,3.60
2024-02-05T05:19:32.427Z,3.80
2024-02-05T05:22:01.591Z,3.55
2024-02-05T05:24:28.393Z,3.70
2024-02-05T05:26:57.501Z,4.20
2024-02-05T05:29:24.024Z,4.70
2024-02-05T05:31:50.563Z,4.97
2024-02-05T05:34:21.996Z,4.25
2024-02-05T05:36:50.914Z,3.58
2024-02-05T05:39:17.662Z,4.18
2024-02-05T05:41:44.224Z,4.85
2024-02-05T05:44:10.751Z,4.10
2024-02-05T05:46:39.788Z,3.55
2024-02-05T05:49:08.973Z,3.95
2024-02-05T05:51:35.878Z,4.43
2024-02-05T05:54:02.515Z,4.13
2024-02-05T05:56:29.810Z,3.90
2024-02-05T05:58:58.624Z,3.95
2024-02-05T06:01:25.597Z,4.05
2024-02-05T06:03:52.470Z,3.70
2024-02-05T06:06:19.256Z,4.18
2024-02-05T06:08:45.861Z,4.63
2024-02-05T06:11:14.607Z,4.18
2024-02-05T06:13:45.194Z,4.68
2024-02-05T06:16:12.190Z,4.00
2024-02-05T06:18:39.202Z,4.30
2024-02-05T06:21:08.566Z,3.67
2024-02-05T06:23:35.148Z,3.95
2024-02-05T06:26:04.045Z,3.45
2024-02-05T06:28:30.788Z,4.45
2024-02-05T06:30:57.416Z,3.55
2024-02-05T06:33:24.035Z,4.57
2024-02-05T06:35:50.764Z,3.67
2024-02-05T06:38:17.306Z,3.80
2024-02-05T06:40:43.979Z,3.72
2024-02-05T06:43:13.580Z,4.50
2024-02-05T06:45:45.280Z,3.65
2024-02-05T06:48:14.306Z,3.63
2024-02-05T06:50:43.185Z,4.43
2024-02-05T06:53:09.705Z,4.20
2024-02-05T06:55:40.724Z,4.00
2024-02-05T06:58:09.543Z,4.35
2024-02-05T07:00:36.127Z,3.58
2024-02-05T07:03:02.794Z,4.57
2024-02-05T07:05:29.408Z,2.95
2024-02-05T07:07:56.075Z,4.28
2024-02-05T07:10:25.050Z,3.97
2024-02-05T07:12:55.014Z,3.47
2024-02-05T07:15:21.636Z,4.30
2024-02-05T07:17:53.472Z,3.58
2024-02-05T07:20:20.393Z,3.65
2024-02-05T07:22:49.336Z,4.82
2024-02-05T07:25:16.805Z,3.47
2024-02-05T07:27:43.453Z,4.72
2024-02-05T07:30:10.669Z,3.08
2024-02-05T07:32:42.201Z,4.18
2024-02-05T07:35:09.034Z,3.33
2024-02-05T07:37:37.491Z,4.00
2024-02-05T07:40:05.329Z,4.50
2024-02-05T07:42:32.351Z,4.40
2024-02-05T07:44:59.004Z,3.53
2024-02-05T07:47:26.140Z,3.90
2024-02-05T07:49:52.801Z,4.05
2024-02-05T07:52:19.745Z,3.90
2024-02-05T07:54:46.461Z,4.28
2024-02-05T07:57:12.998Z,4.05
2024-02-05T07:59:42.280Z,4.47
2024-02-05T08:02:09.752Z,3.97
2024-02-05T08:04:36.906Z,3.50
2024-02-05T08:07:05.975Z,4.00
2024-02-05T08:09:36.130Z,4.20
2024-02-05T08:12:05.613Z,4.28
2024-02-05T08:14:32.150Z,4.13
2024-02-05T08:16:58.727Z,3.58
2024-02-05T08:19:25.637Z,4.55
2024-02-05T08:21:52.556Z,3.95
2024-02-05T08:24:19.458Z,4.10
2024-02-05T08:26:48.464Z,4.72
2024-02-05T08:29:17.712Z,4.18
2024-02-05T08:31:44.351Z,5.03
2024-02-05T08:34:12.567Z,4.97
2024-02-05T08:36:39.874Z,4.05
2024-02-05T08:39:10.003Z,3.83
2024-02-05T08:41:39.360Z,4.65
2024-02-05T08:44:07.080Z,4.47
2024-02-05T08:46:34.234Z,5.30
2024-02-05T08:49:00.924Z,4.60
2024-02-05T08:51:31.598Z,5.20
2024-02-05T08:54:00.667Z,3.90
2024-02-05T08:56:27.302Z,4.18
2024-02-05T08:58:56.029Z,3.28
2024-02-05T09:01:25.359Z,4.15
2024-02-05T09:03:52.065Z,3.85
2024-02-05T09:06:18.946Z,4.47
2024-02-05T09:08:47.710Z,3.50
2024-02-05T09:11:15.455Z,4.80
2024-02-05T09:13:42.444Z,4.13
2024-02-05T09:16:09.126Z,3.53
2024-02-05T09:18:38.786Z,3.83
2024-02-05T09:21:07.794Z,3.40
2024-02-05T09:23:35.692Z,4.65
2024-02-05T09:26:04.480Z,4.35
2024-02-05T09:28:31.753Z,3.70
2024-02-05T09:31:06.287Z,3.88
2024-02-05T09:33:41.968Z,3.42
2024-02-05T09:36:10.306Z,4.30
2024-02-05T09:38:37.734Z,3.70
2024-02-05T09:41:10.344Z,3.05
2024-02-05T09:43:37.517Z,4.03
2024-02-05T09:46:11.752Z,3.60
2024-02-05T09:48:45.428Z,4.68
2024-02-05T09:51:16.864Z,4.03
2024-02-05T09:53:46.006Z,3.65
2024-02-05T09:56:15.182Z,3.70
2024-02-05T09:58:44.330Z,4.57
2024-02-05T10:01:14.717Z,4.07
2024-02-05T10:03:43.278Z,4.57
2024-02-05T10:06:14.097Z,3.75
2024-02-05T10:08:42.561Z,3.55
2024-02-05T10:11:14.026Z,3.13
2024-02-05T10:13:43.370Z,2.95
2024-02-05T10:16:13.813Z,3.53
2024-02-05T10:18:40.435Z,3.65
2024-02-05T10:21:07.040Z,3.40
2024-02-05T10:23:36.112Z,3.42
2024-02-05T10:26:04.587Z,3.40
2024-02-05T10:28:35.839Z,4.25
2024-02-05T10:31:12.293Z,3.22
2024-02-05T10:33:39.383Z,2.58
2024-02-05T10:36:06.326Z,2.83
2024-02-05T10:38:42.294Z,4.28
2024-02-05T10:41:12.517Z,3.90
2024-02-05T10:43:44.610Z,4.10
2024-02-05T10:46:11.391Z,3.72
2024-02-05T10:48:42.787Z,4.63
2024-02-05T10:51:12.144Z,4.80
2024-02-05T10:53:43.892Z,5.13
2024-02-05T10:56:13.066Z,4.63
2024-02-05T10:58:44.749Z,5.10
2024-02-05T11:01:16.181Z,5.32
2024-02-05T11:03:45.805Z,3.47
2024-02-05T11:06:17.354Z,4.35
2024-02-05T11:08:44.671Z,3.90
2024-02-05T11:11:13.934Z,3.70
2024-02-05T11:13:50.135Z,4.53
2024-02-05T11:16:20.409Z,5.15
2024-02-05T11:18:53.716Z,5.13
2024-02-05T11:21:26.784Z,4.25
2024-02-05T11:23:56.652Z,5.40
2024-02-05T11:26:23.627Z,4.78
2024-02-05T11:28:51.472Z,4.85
2024-02-05T11:34:03.452Z,4.90
2024-02-05T11:36:30.753Z,4.70
2024-02-05T11:39:11.229Z,3.53
2024-02-05T11:41:37.993Z,4.03
2024-02-05T11:44:09.891Z,3.92
2024-02-05T11:46:37.012Z,5.50
2024-02-05T11:49:04.160Z,4.35
2024-02-05T11:51:33.913Z,3.60
2024-02-05T11:54:01.104Z,4.15
2024-02-05T11:56:28.042Z,3.88
2024-02-05T11:58:57.271Z,4.22
2024-02-05T12:01:24.253Z,4.57
2024-02-05T12:03:54.442Z,5.07
2024-02-05T12:06:26.441Z,3.92
2024-02-05T12:08:56.679Z,4.07
2024-02-05T12:11:23.508Z,4.13
2024-02-05T12:13:57.640Z,4.30
2024-02-05T12:16:27.149Z,4.10
2024-02-05T12:19:09.056Z,3.92
2024-02-05T12:21:42.652Z,4.20
2024-02-05T12:24:11.914Z,4.32
2024-02-05T12:26:38.514Z,4.20
2024-02-05T12:29:05.506Z,4.10
2024-02-05T12:31:32.322Z,3.83
2024-02-05T12:34:01.403Z,3.42
2024-02-05T12:36:31.367Z,4.47
2024-02-05T12:38:58.361Z,4.28
2024-02-05T12:41:25.503Z,4.63
2024-02-05T12:43:52.423Z,3.95
2024-02-05T12:46:19.496Z,3.60
2024-02-05T12:48:47.885Z,3.67
2024-02-05T12:51:14.581Z,3.72
2024-02-05T12:53:42.973Z,3.92
2024-02-05T12:56:14.598Z,3.95
2024-02-05T12:58:44.419Z,2.80
2024-02-05T13:01:11.580Z,4.03
2024-02-05T13:03:40.807Z,3.70
2024-02-05T13:06:10.025Z,3.55
2024-02-05T13:08:42.475Z,3.60
2024-02-05T13:11:11.787Z,3.20
2024-02-05T13:13:38.431Z,3.28
2024-02-05T13:16:05.941Z,3.63
2024-02-05T13:18:35.089Z,3.75
2024-02-05T13:21:04.274Z,3.67
2024-02-05T13:23:30.904Z,3.60
2024-02-05T13:25:57.797Z,3.70
2024-02-05T13:28:29.524Z,3.38
2024-02-05T13:30:56.523Z,3.97
2024-02-05T13:33:25.638Z,3.85
2024-02-05T13:35:52.213Z,3.33
2024-02-05T13:38:21.867Z,3.97
2024-02-05T13:40:48.568Z,3.40
2024-02-05T13:43:15.214Z,3.72
2024-02-05T13:45:43.643Z,3.47
2024-02-05T13:48:15.119Z,3.22
2024-02-05T13:50:42.085Z,3.67
2024-02-05T13:53:09.034Z,3.83
2024-02-05T13:55:35.612Z,3.70
2024-02-05T13:58:02.208Z,3.83
2024-02-05T14:00:29.197Z,2.63
2024-02-05T14:02:57.992Z,4.28
2024-02-05T14:05:24.719Z,3.10
2024-02-05T14:07:51.675Z,4.13
2024-02-05T14:10:18.701Z,3.58
2024-02-05T14:12:47.851Z,4.28
2024-02-05T14:15:15.786Z,3.20
2024-02-05T14:17:42.378Z,3.25
2024-02-05T14:20:09.463Z,3.25
2024-02-05T14:22:38.682Z,2.88
2024-02-05T14:25:05.931Z,2.80
2024-02-05T14:27:35.160Z,1.98
2024-02-05T14:30:01.883Z,2.60
2024-02-05T14:32:28.611Z,2.88
2024-02-05T14:34:55.398Z,2.58
2024-02-05T14:37:22.095Z,2.30
2024-02-05T14:39:49.027Z,3.33
2024-02-05T14:42:15.604Z,3.88
2024-02-05T14:44:42.692Z,2.80
2024-02-05T14:47:09.339Z,2.47
2024-02-05T14:49:38.572Z,3.22
2024-02-05T14:52:05.629Z,3.15
2024-02-05T14:54:34.481Z,3.25
2024-02-05T14:57:05.985Z,3.20
2024-02-05T14:59:32.542Z,3.33
2024-02-05T15:01:59.487Z,3.20
2024-02-05T15:04:29.291Z,3.33
2024-02-05T15:06:56.244Z,2.65
2024-02-05T15:09:25.513Z,2.67
2024-02-05T15:11:52.458Z,3.55
2024-02-05T15:14:21.604Z,2.67
2024-02-05T15:16:51.763Z,2.33
2024-02-05T15:19:18.607Z,3.30
2024-02-05T15:21:47.879Z,2.50
2024-02-05T15:24:15.329Z,2.10
2024-02-05T15:26:47.750Z,2.50
2024-02-05T15:29:17.906Z,3.00
2024-02-05T15:31:44.805Z,2.05
2024-02-05T15:34:15.650Z,2.28
2024-02-05T15:36:42.544Z,2.30
2024-02-05T15:39:12.612Z,2.47
2024-02-05T15:41:39.587Z,2.47
2024-02-05T15:44:11.107Z,1.80
2024-02-05T15:46:38.477Z,1.90
2024-02-05T15:49:10.408Z,1.67
2024-02-05T15:51:39.632Z,2.33
2024-02-05T15:54:06.516Z,2.22
2024-02-05T15:56:42.259Z,2.38
2024-02-05T15:59:10.266Z,2.15
2024-02-05T16:01:40.643Z,2.30
2024-02-05T16:04:11.048Z,2.05
2024-02-05T16:06:38.050Z,2.20
2024-02-05T16:09:07.515Z,2.20
2024-02-05T16:11:35.028Z,2.92
2024-02-05T16:14:01.620Z,2.30
2024-02-05T16:16:28.426Z,2.28
2024-02-05T16:19:00.359Z,2.85
2024-02-05T16:21:32.567Z,2.92
2024-02-05T16:24:02.324Z,2.40
2024-02-05T16:26:29.201Z,2.22
2024-02-05T16:28:55.879Z,2.10
2024-02-05T16:31:24.750Z,2.10
2024-02-05T16:33:52.218Z,1.92
2024-02-05T16:36:21.700Z,2.15
2024-02-05T16:38:48.604Z,2.25
2024-02-05T16:41:20.092Z,1.80
2024-02-05T16:43:47.004Z,1.40
2024-02-05T16:46:13.867Z,1.15
2024-02-05T16:48:41.159Z,1.30
2024-02-05T16:51:08.259Z,1.65
2024-02-05T16:53:37.953Z,1.25
2024-02-05T16:56:05.130Z,1.40
2024-02-05T16:58:31.889Z,1.50
2024-02-05T17:01:01.517Z,1.23
2024-02-05T17:03:28.880Z,1.42
2024-02-05T17:05:55.891Z,1.92
2024-02-05T17:08:22.521Z,1.65
2024-02-05T17:10:49.207Z,1.70
2024-02-05T17:13:18.683Z,2.30
2024-02-05T17:15:50.534Z,2.17
2024-02-05T17:18:17.431Z,1.58
2024-02-05T17:20:46.532Z,1.73
2024-02-05T17:23:13.188Z,2.30
2024-02-05T17:25:39.903Z,1.42
2024-02-05T17:28:06.691Z,1.20
2024-02-05T17:30:35.486Z,1.40
2024-02-05T17:33:02.242Z,1.30
2024-02-05T17:35:31.490Z,0.98
2024-02-05T17:37:58.052Z,1.33
2024-02-05T17:40:24.733Z,1.10
2024-02-05T17:42:54.267Z,1.10
2024-02-05T17:45:23.165Z,1.42
2024-02-05T17:47:52.003Z,1.33
2024-02-05T17:50:18.706Z,1.70
2024-02-05T17:52:47.360Z,1.40
2024-02-05T17:55:21.025Z,1.50
2024-02-05T17:57:50.465Z,1.75
2024-02-05T18:00:17.254Z,1.63
2024-02-05T18:02:44.300Z,1.75
2024-02-05T18:05:11.642Z,1.85
2024-02-05T18:07:40.967Z,1.42
2024-02-05T18:10:08.503Z,1.35
2024-02-05T18:12:35.113Z,1.70
2024-02-05T18:15:01.663Z,1.13
2024-02-05T18:17:30.732Z,1.80
2024-02-05T18:19:57.396Z,1.55
2024-02-05T18:22:26.681Z,1.00
2024-02-05T18:24:55.703Z,1.33
2024-02-05T18:27:27.635Z,0.98
2024-02-05T18:29:54.179Z,1.20
2024-02-05T18:32:20.810Z,1.17
2024-02-05T18:34:47.812Z,1.10
2024-02-05T18:37:16.247Z,1.42
2024-02-05T18:39:43.294Z,1.45
2024-02-05T18:42:10.015Z,1.83
2024-02-05T18:44:36.743Z,1.63
2024-02-05T18:47:08.649Z,1.20
2024-02-05T18:49:40.011Z,1.58
2024-02-05T18:52:10.742Z,1.60
2024-02-05T18:54:37.596Z,1.63
2024-02-05T18:57:04.286Z,1.77
2024-02-05T18:59:33.645Z,2.17
2024-02-05T19:02:05.572Z,2.05
2024-02-05T19:04:32.810Z,2.20
2024-02-05T19:06:59.823Z,1.70
2024-02-05T19:09:29.113Z,1.80
2024-02-05T19:12:01.031Z,1.63
2024-02-05T19:14:30.331Z,1.73
2024-02-05T19:16:59.151Z,1.75
2024-02-05T19:19:26.146Z,2.30
2024-02-05T19:21:52.905Z,2.03
2024-02-05T19:24:19.834Z,1.95
2024-02-05T19:26:50.392Z,1.77
2024-02-05T19:29:20.614Z,1.50
2024-02-05T19:31:47.760Z,1.40
2024-02-05T19:34:16.910Z,2.20
2024-02-05T19:36:46.278Z,1.80
2024-02-05T19:39:12.867Z,1.80
2024-02-05T19:41:41.772Z,2.20
2024-02-05T19:44:10.874Z,1.75
2024-02-05T19:46:39.851Z,2.00
2024-02-05T19:49:11.199Z,1.85
2024-02-05T19:51:40.473Z,1.35
2024-02-05T19:54:07.120Z,1.80
2024-02-05T19:56:33.670Z,1.98
2024-02-05T19:59:02.366Z,2.30
2024-02-05T20:01:31.680Z,2.13
2024-02-05T20:04:01.071Z,2.03
2024-02-05T20:06:30.734Z,2.15
2024-02-05T20:08:57.535Z,1.95
2024-02-05T20:11:26.535Z,1.85
2024-02-05T20:13:53.190Z,1.58
2024-02-05T20:16:32.707Z,1.90
2024-02-05T20:18:59.839Z,2.33
2024-02-05T20:21:29.846Z,2.22
2024-02-05T20:24:02.876Z,2.75
2024-02-05T20:26:35.252Z,1.67
2024-02-05T20:29:04.159Z,1.73
2024-02-05T20:31:34.683Z,1.65
2024-02-05T20:34:01.693Z,1.70
2024-02-05T20:36:28.665Z,1.30
2024-02-05T20:38:57.789Z,2.05
2024-02-05T20:41:26.801Z,1.85
2024-02-05T20:43:54.109Z,1.77
2024-02-05T20:46:20.793Z,1.92
2024-02-05T20:48:49.944Z,1.60
2024-02-05T20:51:21.420Z,1.70
2024-02-05T20:53:50.641Z,1.58
2024-02-05T20:56:21.013Z,2.15
2024-02-05T20:58:49.849Z,2.00
2024-02-05T21:01:16.680Z,1.85
2024-02-05T21:03:45.950Z,1.77
2024-02-05T21:06:12.550Z,1.48
2024-02-05T21:08:43.922Z,1.92
2024-02-05T21:11:12.995Z,1.90
2024-02-05T21:13:42.169Z,1.42
2024-02-05T21:16:16.094Z,1.80
2024-02-05T21:18:43.255Z,1.42
2024-02-05T21:21:10.040Z,1.90
2024-02-05T21:23:37.012Z,1.63
2024-02-05T21:26:03.798Z,2.22
2024-02-05T21:28:33.091Z,1.50
2024-02-05T21:31:04.976Z,2.20
2024-02-05T21:33:31.962Z,1.67
2024-02-05T21:36:00.864Z,1.98
2024-02-05T21:38:27.406Z,2.17
2024-02-05T21:40:56.306Z,2.05
2024-02-05T21:43:22.972Z,1.63
2024-02-05T21:45:54.373Z,2.17
2024-02-05T21:48:23.295Z,1.88
2024-02-05T21:50:49.991Z,2.40
2024-02-05T21:53:19.844Z,1.45
2024-02-05T21:55:46.506Z,1.77
2024-02-05T21:58:17.664Z,2.20
2024-02-05T22:00:47.249Z,2.13
2024-02-05T22:03:13.843Z,1.80
2024-02-05T22:05:40.614Z,1.88
2024-02-05T22:08:09.670Z,2.05
2024-02-05T22:10:38.875Z,2.28
2024-02-05T22:13:09.154Z,2.03
2024-02-05T22:15:38.765Z,2.50
2024-02-05T22:18:05.896Z,2.50
2024-02-05T22:20:34.733Z,1.88
2024-02-05T22:23:03.643Z,2.17
2024-02-05T22:25:30.403Z,2.22
2024-02-05T22:27:57.940Z,2.72
2024-02-05T22:30:26.201Z,2.38
2024-02-05T22:32:53.802Z,2.40
2024-02-05T22:35:20.593Z,2.15
2024-02-05T22:37:49.541Z,2.50
2024-02-05T22:40:16.195Z,1.95
2024-02-05T22:42:47.629Z,1.85
2024-02-05T22:45:17.192Z,2.08
2024-02-05T22:47:43.869Z,2.20
2024-02-05T22:50:11.218Z,2.13
2024-02-05T22:52:38.546Z,1.90
2024-02-05T22:55:06.151Z,2.45
2024-02-05T22:57:35.705Z,2.50
2024-02-05T23:00:02.996Z,2.15
2024-02-05T23:02:30.364Z,2.30
2024-02-05T23:04:59.441Z,3.00
2024-02-05T23:07:30.942Z,2.95
2024-02-05T23:09:57.825Z,2.53
2024-02-05T23:12:26.830Z,2.92
2024-02-05T23:14:53.389Z,2.97
2024-02-05T23:17:22.337Z,2.50
2024-02-05T23:19:49.054Z,2.70
2024-02-05T23:22:18.355Z,2.72
2024-02-05T23:24:45.128Z,2.55
2024-02-05T23:27:12.601Z,3.03
2024-02-05T23:29:44.083Z,3.15
2024-02-05T23:32:11.010Z,2.40
2024-02-05T23:34:40.082Z,2.70
2024-02-05T23:37:06.973Z,3.17
2024-02-05T23:39:33.665Z,2.65
2024-02-05T23:42:00.611Z,2.47
2024-02-05T23:44:29.529Z,2.30
2024-02-05T23:46:58.439Z,2.88
2024-02-05T23:49:27.361Z,3.22
2024-02-05T23:51:56.861Z,2.40
2024-02-05T23:54:26.126Z,2.95
2024-02-05T23:56:54.759Z,2.85
2024-02-05T23:59:22.532Z,2.90
